Mc Dougal, Arkansas
Current Conditions -  °F | °C
As of 8:55 PM on Friday 31 Oct 2014 (Local Time) from K4M9 Reporting Station
Clear Clear  
Wind Chill:   Ceiling: Unl
Heat Index:   Visibility: 10mi
Dew Point: -4°   Wind: 7mph
Humidity: 56%   Direction: 350°N
Pressure: 30.36"   Gusts: NA
Location:  36.4376°N, 90.3867°W
Report Text: K4M9 010155Z AUTO 35006KT 10SM CLR 04/M04 A3036 RMK AO2
Loading
Personal Weather Stations






























Interactive Weather Map
Tropical Storm Tracking
New forecast layout! Learn more

10-Day Weather Forecast

Advertisements
Track Severe Weather on mobile